world map with NZC marked

NZC - Airport

This information may not be accurate or current and is not valid for navigation or flight planning. No warranty of fitness for any purpose is made or implied.

flag of Icaflag of Perú

Donate via PayPal

Additional information is available on the NEW Great Circle Mapper

Location
City:  Nazca, Ica, Perú
Name:Nasca - María Reiche Neuman Airport
ICAO / IATA:SPZA / NZC

Details
Type:Airport (Aerodrome, Airfield)
Use:Public/Civil
Latitude:14°51'15"S (-14.854138)
Longitude:74°57'42"W (-74.961774)
Elevation:1813 ft (553 m)
Runways:1
Longest:3281 × 59 ft (1000 × 18 m)

Time
Timezone:UTC+29:08 (DST+31:08)
Local Time:

Weather
METAR:SPZA  272130Z 19012KT CAVOK 29/14 Q1009
TAF:SPZA  (expired)

Related Locations
Nearby:
Farthest:UBP: 12438 mi / 20017 km
Ubon Ratchathani, TH

Find:

   beyond  
but within

Other Information
Maps:
Links:
Sources:

  


 


Great Circle Mapper   Great Circle Mapper
Great Circle Mapper FAQ   Great Circle Mapper FAQ
  Karl's Home Page
KLS²   KLS² Home
   GC on Facebook
Airlines of the World   Airlines of the World
Donate via PayPal


Copyright © 2004-2015, Karl L. Swartz. All rights reserved.
All trademarks mentioned herein belong to their respective owners.

Please see credits for attribution and copyright information.

Karl Swartz <karl@kls2.com>
  Powered by FreeBSD
Valid HTML 4.01!
Labeled with ICRA
hCard Microformat
Geo Microformat